GCRR

Lanzarote Airport

Lanzarote Island, Spain
METAR GCRR 180000Z 02013KT 9999 SCT030 22/17 Q1018
Observed Flight Rules
Oct-18 @ 00:00 UTC (45 minutes ago) Visual Flight Rules
Wind Visibility Clouds
20° at 13 knots 10,000+ meters
  • Scattered at 3,000' AGL
Temperatures Readings
Current 22°C / 72°F
Dewpoint 17°C / 63°F
Humidity 73%
Altimeter 30.06" Hg
Pressure 1018 hPa
Elevation 40
METAR GCRR 180000Z 02013KT 9999 SCT030 22/17 Q1018
Observed Flight Rules
Oct-18 @ 00:00 UTC
(45 minutes ago)
VFR
Wind Visibility
20° at 13 knots 10,000+ meters
Clouds
  • Scattered at 3,000' AGL
Temperature Dewpoint
22°C / 72°F 17°C / 63°F
Humidity Altimeter Pressure
73% 30.06" Hg 1018 hPa